createdAt,value
2018-03-26T00:01:07.297Z,78.75
2018-03-26T00:03:35.947Z,78.64
2018-03-26T00:06:04.562Z,78.27
2018-03-26T00:08:33.197Z,78.29
2018-03-26T00:11:01.774Z,77.66
2018-03-26T00:13:30.752Z,77.94
2018-03-26T00:15:59.363Z,78.11
2018-03-26T00:18:27.955Z,78.19
2018-03-26T00:20:56.559Z,78.53
2018-03-26T00:23:25.127Z,78.83
2018-03-26T00:25:53.826Z,78.47
2018-03-26T00:28:23.120Z,78.56
2018-03-26T00:30:52.782Z,78.55
2018-03-26T00:33:21.394Z,78.92
2018-03-26T00:35:50.119Z,78.33
2018-03-26T00:38:18.763Z,78.30
2018-03-26T00:40:47.466Z,78.43
2018-03-26T00:43:16.047Z,78.76
2018-03-26T00:45:44.603Z,78.80
2018-03-26T00:48:13.217Z,78.18
2018-03-26T00:50:41.803Z,78.72
2018-03-26T00:53:10.427Z,79.06
2018-03-26T00:55:39.080Z,78.95
2018-03-26T00:58:07.666Z,78.75
2018-03-26T01:00:36.516Z,79.29
2018-03-26T01:03:10.012Z,79.39
2018-03-26T01:05:39.494Z,78.49
2018-03-26T01:08:08.625Z,79.21
2018-03-26T01:10:37.547Z,78.97
2018-03-26T01:13:06.130Z,78.96
2018-03-26T01:15:34.972Z,79.11
2018-03-26T01:18:03.593Z,79.27
2018-03-26T01:20:32.733Z,78.89
2018-03-26T01:23:01.307Z,79.20
2018-03-26T01:25:29.908Z,78.54
2018-03-26T01:27:59.286Z,78.56
2018-03-26T01:30:27.898Z,78.34
2018-03-26T01:32:56.525Z,78.75
2018-03-26T01:35:25.101Z,78.60
2018-03-26T01:37:53.842Z,78.27
2018-03-26T01:40:22.404Z,78.97
2018-03-26T01:42:53.145Z,79.64
2018-03-26T01:45:21.817Z,79.82
2018-03-26T01:47:50.440Z,79.95
2018-03-26T01:50:19.155Z,79.78
2018-03-26T01:52:47.787Z,79.41
2018-03-26T01:55:16.420Z,78.92
2018-03-26T01:57:45.016Z,78.17
2018-03-26T02:00:13.900Z,78.55
2018-03-26T02:02:42.600Z,78.56
2018-03-26T02:05:11.451Z,78.66
2018-03-26T02:07:40.000Z,78.83
2018-03-26T02:10:08.675Z,78.69
2018-03-26T02:12:37.298Z,77.56
2018-03-26T02:15:05.962Z,77.31
2018-03-26T02:17:34.566Z,76.76
2018-03-26T02:20:03.490Z,76.71
2018-03-26T02:22:32.584Z,76.89
2018-03-26T02:25:01.320Z,77.29
2018-03-26T02:27:29.876Z,77.69
2018-03-26T02:29:58.510Z,77.35
2018-03-26T02:32:27.095Z,77.80
2018-03-26T02:35:16.537Z,77.66
2018-03-26T02:37:45.180Z,78.15
2018-03-26T02:40:14.827Z,77.81
2018-03-26T02:42:43.559Z,77.66
2018-03-26T02:45:12.206Z,77.04
2018-03-26T02:47:40.820Z,76.96
2018-03-26T02:50:09.937Z,77.21
2018-03-26T02:52:38.556Z,76.96
2018-03-26T02:55:07.227Z,77.45
2018-03-26T02:57:36.715Z,77.70
2018-03-26T03:00:05.400Z,77.84
2018-03-26T03:02:34.134Z,77.28
2018-03-26T03:05:02.758Z,77.84
2018-03-26T03:07:31.356Z,77.75
2018-03-26T03:09:59.993Z,77.68
2018-03-26T03:12:28.702Z,77.91
2018-03-26T03:14:57.323Z,78.27
2018-03-26T03:17:26.772Z,77.75
2018-03-26T03:19:55.383Z,77.55
2018-03-26T03:22:25.863Z,77.97
2018-03-26T03:24:55.230Z,78.22
2018-03-26T03:27:23.882Z,78.47
2018-03-26T03:29:53.687Z,78.55
2018-03-26T03:32:22.403Z,78.97
2018-03-26T03:34:51.037Z,79.67
2018-03-26T03:37:19.659Z,79.33
2018-03-26T03:39:48.870Z,79.25
2018-03-26T03:42:18.378Z,78.86
2018-03-26T03:44:47.299Z,79.63
2018-03-26T03:47:16.628Z,80.10
2018-03-26T03:49:46.033Z,79.96
2018-03-26T03:52:14.680Z,80.38
2018-03-26T03:54:43.384Z,81.42
2018-03-26T03:57:12.030Z,82.28
2018-03-26T03:59:40.704Z,81.84
2018-03-26T04:02:09.575Z,81.24
2018-03-26T04:04:38.242Z,80.61
2018-03-26T04:07:07.630Z,79.89
2018-03-26T04:09:36.347Z,79.44
2018-03-26T04:12:05.032Z,79.95
2018-03-26T04:14:33.642Z,80.29
2018-03-26T04:17:02.298Z,79.90
2018-03-26T04:19:30.915Z,78.87
2018-03-26T04:22:00.585Z,78.68
2018-03-26T04:24:29.193Z,79.32
2018-03-26T04:26:58.704Z,79.52
2018-03-26T04:29:27.979Z,79.49
2018-03-26T04:31:56.594Z,80.16
2018-03-26T04:34:25.201Z,81.02
2018-03-26T04:36:54.676Z,80.61
2018-03-26T04:39:23.313Z,79.81
2018-03-26T04:41:52.147Z,80.34
2018-03-26T04:44:21.265Z,79.80
2018-03-26T04:46:51.756Z,80.81
2018-03-26T04:49:20.452Z,81.12
2018-03-26T04:51:49.091Z,82.17
2018-03-26T04:54:17.722Z,81.92
2018-03-26T04:56:46.366Z,82.20
2018-03-26T04:59:15.040Z,82.13
2018-03-26T05:01:43.723Z,82.11
2018-03-26T05:04:12.450Z,82.35
2018-03-26T05:06:41.161Z,82.49
2018-03-26T05:09:10.637Z,83.57
2018-03-26T05:11:39.295Z,84.42
2018-03-26T05:14:08.177Z,83.61
2018-03-26T05:16:36.816Z,83.99
2018-03-26T05:19:05.477Z,85.08
2018-03-26T05:21:35.215Z,84.49
2018-03-26T05:24:03.871Z,84.75
2018-03-26T05:26:32.590Z,84.70
2018-03-26T05:29:01.797Z,84.27
2018-03-26T05:31:31.749Z,83.19
2018-03-26T05:34:01.375Z,82.94
2018-03-26T05:36:30.894Z,82.25
2018-03-26T05:38:59.749Z,82.16
2018-03-26T05:41:28.527Z,82.59
2018-03-26T05:43:57.162Z,82.04
2018-03-26T05:46:25.906Z,82.00
2018-03-26T05:48:55.411Z,81.88
2018-03-26T05:51:25.136Z,81.64
2018-03-26T05:53:55.609Z,81.75
2018-03-26T05:56:24.271Z,82.43
2018-03-26T05:58:52.887Z,82.05
2018-03-26T06:01:23.266Z,80.93
2018-03-26T06:03:52.873Z,81.39
2018-03-26T06:06:21.509Z,81.28
2018-03-26T06:08:51.310Z,81.68
2018-03-26T06:11:20.001Z,81.16
2018-03-26T06:13:48.603Z,81.70
2018-03-26T06:16:17.249Z,81.71
2018-03-26T06:18:46.965Z,81.36
2018-03-26T06:21:17.117Z,81.35
2018-03-26T06:23:46.179Z,80.73
2018-03-26T06:26:14.873Z,80.82
2018-03-26T06:28:43.637Z,81.19
2018-03-26T06:31:12.658Z,81.22
2018-03-26T06:33:41.384Z,81.59
2018-03-26T06:36:10.095Z,81.29
2018-03-26T06:38:43.164Z,81.35
2018-03-26T06:41:11.865Z,81.64
2018-03-26T06:43:40.541Z,82.24
2018-03-26T06:46:09.174Z,82.52
2018-03-26T06:48:38.720Z,82.92
2018-03-26T06:51:08.355Z,82.05
2018-03-26T06:53:38.167Z,81.37
2018-03-26T06:56:06.899Z,80.96
2018-03-26T06:58:36.868Z,80.14
2018-03-26T07:01:05.498Z,79.37
2018-03-26T07:03:34.469Z,79.71
2018-03-26T07:06:03.348Z,79.30
2018-03-26T07:08:32.004Z,78.64
2018-03-26T07:11:01.045Z,78.98
2018-03-26T07:13:29.666Z,78.37
2018-03-26T07:15:59.409Z,78.44
2018-03-26T07:18:28.019Z,78.67
2018-03-26T07:20:56.663Z,78.31
2018-03-26T07:23:25.491Z,77.84
2018-03-26T07:25:54.100Z,77.91
2018-03-26T07:28:23.705Z,78.41
2018-03-26T07:30:52.978Z,78.17
2018-03-26T07:33:21.639Z,78.05
2018-03-26T07:35:50.322Z,78.40
2018-03-26T07:38:19.035Z,77.63
2018-03-26T07:40:47.653Z,78.01
2018-03-26T07:43:17.511Z,78.15
2018-03-26T07:45:46.250Z,78.18
2018-03-26T07:48:14.903Z,78.04
2018-03-26T07:50:44.702Z,77.40
2018-03-26T07:53:13.687Z,76.57
2018-03-26T07:55:42.366Z,76.32
2018-03-26T07:58:10.978Z,76.45
2018-03-26T08:00:39.704Z,76.37
2018-03-26T08:03:08.771Z,77.08
2018-03-26T08:05:39.430Z,76.54
2018-03-26T08:08:09.863Z,76.56
2018-03-26T08:10:39.177Z,76.53
2018-03-26T08:13:08.020Z,75.72
2018-03-26T08:15:36.823Z,75.53
2018-03-26T08:18:05.524Z,75.28
2018-03-26T08:20:34.783Z,74.49
2018-03-26T08:23:03.437Z,74.63
2018-03-26T08:25:33.386Z,74.62
2018-03-26T08:28:02.983Z,73.59
2018-03-26T08:30:32.653Z,72.54
2018-03-26T08:33:01.309Z,71.84
2018-03-26T08:35:29.944Z,71.93
2018-03-26T08:37:58.589Z,72.07
2018-03-26T08:40:27.286Z,69.83
2018-03-26T08:42:55.930Z,68.74
2018-03-26T08:45:25.313Z,66.82
2018-03-26T08:47:54.185Z,64.69
2018-03-26T08:50:22.815Z,64.37
2018-03-26T08:52:51.669Z,62.08
2018-03-26T08:55:21.126Z,62.11
2018-03-26T08:57:51.222Z,61.17
2018-03-26T09:00:20.056Z,60.29
2018-03-26T09:02:50.270Z,60.17
2018-03-26T09:05:18.971Z,61.17
2018-03-26T09:07:47.630Z,61.53
2018-03-26T09:10:16.481Z,62.47
2018-03-26T09:12:45.130Z,61.83
2018-03-26T09:15:13.900Z,61.42
2018-03-26T09:17:42.910Z,62.21
2018-03-26T09:20:11.625Z,62.97
2018-03-26T09:22:40.300Z,62.82
2018-03-26T09:25:08.986Z,62.47
2018-03-26T09:27:37.613Z,60.35
2018-03-26T09:30:06.322Z,60.28
2018-03-26T09:32:34.962Z,58.90
2018-03-26T09:35:03.657Z,57.51
2018-03-26T09:37:32.942Z,56.91
2018-03-26T09:40:01.567Z,56.26
2018-03-26T09:42:30.935Z,56.98
2018-03-26T09:44:59.649Z,57.72
2018-03-26T09:47:28.268Z,57.26
2018-03-26T09:49:57.191Z,58.45
2018-03-26T09:52:26.817Z,56.24
2018-03-26T09:54:56.174Z,54.33
2018-03-26T09:57:24.979Z,52.89
2018-03-26T09:59:53.664Z,52.95
2018-03-26T10:02:22.406Z,51.28
2018-03-26T10:04:51.134Z,50.79
2018-03-26T10:07:19.751Z,50.14
2018-03-26T10:09:48.574Z,50.98
2018-03-26T10:12:17.212Z,53.16
2018-03-26T10:14:46.014Z,51.52
2018-03-26T10:17:14.591Z,51.15
2018-03-26T10:19:43.328Z,53.48
2018-03-26T10:22:12.992Z,53.73
2018-03-26T10:24:41.709Z,55.77
2018-03-26T10:27:11.416Z,54.41
2018-03-26T10:29:40.152Z,51.85
2018-03-26T10:32:10.156Z,52.18
2018-03-26T10:34:39.002Z,51.07
2018-03-26T10:37:08.690Z,52.22
2018-03-26T10:39:38.554Z,50.30
2018-03-26T10:42:07.144Z,50.39
2018-03-26T10:44:35.908Z,49.73
2018-03-26T10:47:04.738Z,50.77
2018-03-26T10:49:33.435Z,49.90
2018-03-26T10:52:02.983Z,47.97
2018-03-26T10:54:31.887Z,48.68
2018-03-26T10:57:00.517Z,46.88
2018-03-26T10:59:29.230Z,47.71
2018-03-26T11:01:57.954Z,47.55
2018-03-26T11:04:26.694Z,48.74
2018-03-26T11:06:55.584Z,48.97
2018-03-26T11:09:24.443Z,49.83
2018-03-26T11:11:53.946Z,49.01
2018-03-26T11:14:23.828Z,48.84
2018-03-26T11:16:52.711Z,44.85
2018-03-26T11:19:21.414Z,45.29
2018-03-26T11:21:50.239Z,44.88
2018-03-26T11:24:19.169Z,45.92
2018-03-26T11:26:47.976Z,44.18
2018-03-26T11:29:16.593Z,45.44
2018-03-26T11:31:45.430Z,47.10
2018-03-26T11:34:14.271Z,47.72
2018-03-26T11:36:42.973Z,46.88
2018-03-26T11:39:12.093Z,47.02
2018-03-26T11:41:40.923Z,47.34
2018-03-26T11:44:09.718Z,48.42
2018-03-26T11:46:38.458Z,47.07
2018-03-26T11:49:07.196Z,45.88
2018-03-26T11:51:36.006Z,44.98
2018-03-26T11:54:04.750Z,49.15
2018-03-26T11:56:33.549Z,49.75
2018-03-26T11:59:02.270Z,48.82
2018-03-26T12:01:31.204Z,48.05
2018-03-26T12:04:00.006Z,47.29
2018-03-26T12:06:28.943Z,47.68
2018-03-26T12:08:58.460Z,46.42
2018-03-26T12:11:27.298Z,46.22
2018-03-26T12:13:56.240Z,47.20
2018-03-26T12:16:25.037Z,47.52
2018-03-26T12:18:54.052Z,47.84
2018-03-26T12:21:22.875Z,48.27
2018-03-26T12:24:03.338Z,50.90
2018-03-26T12:26:32.554Z,49.07
2018-03-26T12:29:13.024Z,49.62
2018-03-26T12:31:41.765Z,49.08
2018-03-26T12:34:22.813Z,49.66
2018-03-26T12:36:51.736Z,48.93
2018-03-26T12:39:20.757Z,48.56
2018-03-26T12:41:49.697Z,49.20
2018-03-26T12:44:30.093Z,49.50
2018-03-26T12:46:59.183Z,49.51
2018-03-26T12:49:27.989Z,47.71
2018-03-26T12:52:08.583Z,49.09
2018-03-26T12:54:37.373Z,49.55
2018-03-26T12:57:18.201Z,49.47
2018-03-26T12:59:46.963Z,49.17
2018-03-26T13:02:26.481Z,48.83
2018-03-26T13:04:55.346Z,48.97
2018-03-26T13:07:24.364Z,49.23
2018-03-26T13:09:53.188Z,49.94
2018-03-26T13:12:22.124Z,49.44
2018-03-26T13:14:51.050Z,52.05
2018-03-26T13:17:20.206Z,53.28
2018-03-26T13:19:48.871Z,54.79
2018-03-26T13:22:17.641Z,55.29
2018-03-26T13:24:46.485Z,55.86
2018-03-26T13:27:15.244Z,56.10
2018-03-26T13:29:44.188Z,55.48
2018-03-26T13:32:12.890Z,54.99
2018-03-26T13:34:42.909Z,55.00
2018-03-26T13:37:11.638Z,54.89
2018-03-26T13:39:40.461Z,54.81
2018-03-26T13:42:09.281Z,55.94
2018-03-26T13:44:38.167Z,56.35
2018-03-26T13:47:06.924Z,55.87
2018-03-26T13:49:35.657Z,54.33
2018-03-26T13:52:04.376Z,54.23
2018-03-26T13:54:33.199Z,53.67
2018-03-26T13:57:01.974Z,53.92
2018-03-26T13:59:31.660Z,52.32
2018-03-26T14:02:00.462Z,53.77
2018-03-26T14:04:29.488Z,54.60
2018-03-26T14:06:58.306Z,54.12
2018-03-26T14:09:38.838Z,55.22
2018-03-26T14:12:19.408Z,54.14
2018-03-26T14:14:59.942Z,55.31
2018-03-26T14:17:40.529Z,54.21
2018-03-26T14:20:09.394Z,54.83
2018-03-26T14:22:38.185Z,53.91
2018-03-26T14:25:08.683Z,54.83
2018-03-26T14:27:37.500Z,54.57
2018-03-26T14:30:06.243Z,53.18
2018-03-26T14:32:35.468Z,53.82
2018-03-26T14:38:13.954Z,52.65
2018-03-26T14:40:42.780Z,52.50
2018-03-26T14:43:11.515Z,53.38
2018-03-26T14:45:40.524Z,52.09
2018-03-26T14:48:09.246Z,52.81
2018-03-26T14:50:37.894Z,52.73
2018-03-26T14:53:06.698Z,52.81
2018-03-26T14:55:35.514Z,52.46
2018-03-26T14:58:04.333Z,52.63
2018-03-26T15:00:33.053Z,53.46
2018-03-26T15:03:01.775Z,53.56
2018-03-26T15:05:30.502Z,53.39
2018-03-26T15:07:59.242Z,53.91
2018-03-26T15:10:28.032Z,54.17
2018-03-26T15:12:57.489Z,55.39
2018-03-26T15:15:26.288Z,55.10
2018-03-26T15:17:55.110Z,55.78
2018-03-26T15:20:23.974Z,56.21
2018-03-26T15:22:52.691Z,56.22
2018-03-26T15:25:21.457Z,55.66
2018-03-26T15:27:50.301Z,56.29
2018-03-26T15:30:19.023Z,56.55
2018-03-26T15:32:47.844Z,56.15
2018-03-26T15:35:16.588Z,56.08
2018-03-26T15:37:45.288Z,56.10
2018-03-26T15:40:14.008Z,55.71
2018-03-26T15:42:42.645Z,55.55
2018-03-26T15:45:11.346Z,56.85
2018-03-26T15:47:40.076Z,58.18
2018-03-26T15:50:09.097Z,58.35
2018-03-26T15:52:37.825Z,58.52
2018-03-26T15:55:06.608Z,59.22
2018-03-26T15:57:35.381Z,59.35
2018-03-26T16:00:04.288Z,59.07
2018-03-26T16:02:38.728Z,59.98
2018-03-26T16:05:07.551Z,60.19
2018-03-26T16:07:36.473Z,60.36
2018-03-26T16:10:05.234Z,60.62
2018-03-26T16:12:33.936Z,60.19
2018-03-26T16:15:02.642Z,60.61
2018-03-26T16:17:31.483Z,61.71
2018-03-26T16:20:00.203Z,62.30
2018-03-26T16:22:29.005Z,63.41
2018-03-26T16:24:57.727Z,63.44
2018-03-26T16:27:26.452Z,63.23
2018-03-26T16:29:55.272Z,62.99
2018-03-26T16:32:24.093Z,63.29
2018-03-26T16:34:52.714Z,63.28
2018-03-26T16:37:21.417Z,64.41
2018-03-26T16:39:50.105Z,64.71
2018-03-26T16:45:25.137Z,65.38
2018-03-26T16:47:53.958Z,65.59
2018-03-26T16:50:22.779Z,66.02
2018-03-26T16:52:51.501Z,66.25
2018-03-26T16:55:20.323Z,66.48
2018-03-26T16:57:48.951Z,66.44
2018-03-26T17:00:18.569Z,66.53
2018-03-26T17:02:47.291Z,65.60
2018-03-26T17:05:16.825Z,65.81
2018-03-26T17:07:45.537Z,66.01
2018-03-26T17:10:14.277Z,66.51
2018-03-26T17:12:42.986Z,66.65
2018-03-26T17:15:11.805Z,66.61
2018-03-26T17:17:40.605Z,66.62
2018-03-26T17:20:09.524Z,66.62
2018-03-26T17:22:38.272Z,66.53
2018-03-26T17:25:07.005Z,66.79
2018-03-26T17:27:35.732Z,66.92
2018-03-26T17:30:04.562Z,66.85
2018-03-26T17:32:33.284Z,66.78
2018-03-26T17:35:02.003Z,66.94
2018-03-26T17:37:30.764Z,66.45
2018-03-26T17:39:59.402Z,67.69
2018-03-26T17:42:28.145Z,67.80
2018-03-26T17:44:56.921Z,68.31
2018-03-26T17:47:25.698Z,68.41
2018-03-26T17:49:54.415Z,68.66
2018-03-26T17:52:23.237Z,68.88
2018-03-26T17:54:51.890Z,69.37
2018-03-26T17:57:20.603Z,69.43
2018-03-26T17:59:49.400Z,69.81
2018-03-26T18:02:18.123Z,70.62
2018-03-26T18:04:46.945Z,71.54
2018-03-26T18:07:15.741Z,72.28
2018-03-26T18:09:44.366Z,72.42
2018-03-26T18:12:13.028Z,72.05
2018-03-26T18:14:41.821Z,73.09
2018-03-26T18:17:10.754Z,72.50
2018-03-26T18:19:39.578Z,72.14
2018-03-26T18:22:08.299Z,72.51
2018-03-26T18:24:37.120Z,72.42
2018-03-26T18:27:05.922Z,72.23
2018-03-26T18:29:34.665Z,72.59
2018-03-26T18:32:03.458Z,72.76
2018-03-26T18:34:32.312Z,72.80
2018-03-26T18:37:00.993Z,73.28
2018-03-26T18:39:29.856Z,73.23
2018-03-26T18:41:58.651Z,72.88
2018-03-26T18:44:27.485Z,72.83
2018-03-26T18:46:56.120Z,72.93
2018-03-26T18:49:25.546Z,72.96
2018-03-26T18:51:54.316Z,72.93
2018-03-26T18:54:22.990Z,72.60
2018-03-26T18:56:51.763Z,72.11
2018-03-26T18:59:20.665Z,72.70
2018-03-26T19:01:49.354Z,73.04
2018-03-26T19:04:18.107Z,71.46
2018-03-26T19:06:46.900Z,70.69
2018-03-26T19:09:15.634Z,70.74
2018-03-26T19:11:44.370Z,70.86
2018-03-26T19:14:13.166Z,70.46
2018-03-26T19:16:41.995Z,70.29
2018-03-26T19:19:10.726Z,69.86
2018-03-26T19:21:40.238Z,69.28
2018-03-26T19:24:08.956Z,69.40
2018-03-26T19:26:38.210Z,69.64
2018-03-26T19:29:06.924Z,69.69
2018-03-26T19:31:35.630Z,69.33
2018-03-26T19:34:04.347Z,69.70
2018-03-26T19:36:33.140Z,69.29
2018-03-26T19:39:01.791Z,69.41
2018-03-26T19:41:30.610Z,69.53
2018-03-26T19:43:59.339Z,69.79
2018-03-26T19:46:28.057Z,69.34
2018-03-26T19:48:56.849Z,68.97
2018-03-26T19:51:25.600Z,69.04
2018-03-26T19:53:54.408Z,68.67
2018-03-26T19:56:23.142Z,68.44
2018-03-26T19:58:52.065Z,68.41
2018-03-26T20:01:21.537Z,68.22
2018-03-26T20:03:50.364Z,68.32
2018-03-26T20:06:19.136Z,68.28
2018-03-26T20:08:48.062Z,68.73
2018-03-26T20:11:16.879Z,68.21
2018-03-26T20:13:45.602Z,67.95
2018-03-26T20:16:15.226Z,67.60
2018-03-26T20:18:43.950Z,68.15
2018-03-26T20:21:12.673Z,68.34
2018-03-26T20:23:41.492Z,68.48
2018-03-26T20:26:10.183Z,68.94
2018-03-26T20:28:38.851Z,68.40
2018-03-26T20:31:08.365Z,68.88
2018-03-26T20:33:37.926Z,69.06
2018-03-26T20:36:06.708Z,69.85
2018-03-26T20:38:35.439Z,69.89
2018-03-26T20:41:04.158Z,70.06
2018-03-26T20:43:32.980Z,69.94
2018-03-26T20:46:01.759Z,69.35
2018-03-26T20:48:32.023Z,69.91
2018-03-26T20:51:00.845Z,70.06
2018-03-26T20:53:29.632Z,70.45
2018-03-26T20:55:58.323Z,70.68
2018-03-26T20:58:28.014Z,70.58
2018-03-26T21:00:56.754Z,69.72
2018-03-26T21:03:25.424Z,69.74
2018-03-26T21:05:54.179Z,70.36
2018-03-26T21:08:23.004Z,70.78
2018-03-26T21:10:51.825Z,70.52
2018-03-26T21:13:20.570Z,70.24
2018-03-26T21:15:49.231Z,69.80
2018-03-26T21:18:18.547Z,69.51
2018-03-26T21:20:47.316Z,69.85
2018-03-26T21:23:16.055Z,69.82
2018-03-26T21:25:44.787Z,69.71
2018-03-26T21:28:13.492Z,69.95
2018-03-26T21:30:42.184Z,70.75
2018-03-26T21:33:10.894Z,71.04
2018-03-26T21:35:40.122Z,71.19
2018-03-26T21:38:08.859Z,71.48
2018-03-26T21:40:38.574Z,71.73
2018-03-26T21:43:07.319Z,71.93
2018-03-26T21:45:36.142Z,73.07
2018-03-26T21:48:04.963Z,73.55
2018-03-26T21:50:33.784Z,72.25
2018-03-26T21:53:02.607Z,73.06
2018-03-26T21:55:31.228Z,74.05
2018-03-26T21:57:59.852Z,76.03
2018-03-26T22:00:28.571Z,76.16
2018-03-26T22:02:57.201Z,76.58
2018-03-26T22:05:26.015Z,76.61
2018-03-26T22:07:55.443Z,76.65
2018-03-26T22:10:24.160Z,77.45
2018-03-26T22:12:52.882Z,78.07
2018-03-26T22:15:21.679Z,78.20
2018-03-26T22:17:50.328Z,78.11
2018-03-26T22:20:19.150Z,78.05
2018-03-26T22:22:47.872Z,78.42
2018-03-26T22:25:16.628Z,78.23
2018-03-26T22:27:45.438Z,78.40
2018-03-26T22:30:14.169Z,78.65
2018-03-26T22:32:42.960Z,78.05
2018-03-26T22:35:11.662Z,77.79
2018-03-26T22:37:40.504Z,78.10
2018-03-26T22:40:09.325Z,78.74
2018-03-26T22:42:38.147Z,78.56
2018-03-26T22:45:06.929Z,79.13
2018-03-26T22:47:35.596Z,79.50
2018-03-26T22:50:04.819Z,79.76
2018-03-26T22:52:33.638Z,80.01
2018-03-26T22:55:02.403Z,80.27
2018-03-26T22:57:31.085Z,79.95
2018-03-26T22:59:59.882Z,79.93
2018-03-26T23:02:28.514Z,80.77
2018-03-26T23:04:57.259Z,80.75
2018-03-26T23:07:25.980Z,80.68
2018-03-26T23:09:54.702Z,80.72
2018-03-26T23:12:23.412Z,80.87
2018-03-26T23:14:52.406Z,80.67
2018-03-26T23:17:21.097Z,80.73
2018-03-26T23:19:49.878Z,81.52
2018-03-26T23:22:30.645Z,81.44
2018-03-26T23:24:59.366Z,81.10
2018-03-26T23:27:28.012Z,81.63
2018-03-26T23:29:56.621Z,82.00
2018-03-26T23:32:25.431Z,81.93
2018-03-26T23:34:54.077Z,82.37
2018-03-26T23:37:23.230Z,82.58
2018-03-26T23:39:52.100Z,82.70
2018-03-26T23:42:20.821Z,81.65
2018-03-26T23:44:49.514Z,81.82
2018-03-26T23:47:18.115Z,82.15
2018-03-26T23:49:46.885Z,82.25
2018-03-26T23:52:15.727Z,82.62
2018-03-26T23:54:44.529Z,81.78
2018-03-26T23:57:13.312Z,81.42
2018-03-26T23:59:42.074Z,81.08
